Forside
METAR-TAF:

METAR-TAF

Lufthavne :

Lawrence J. Timmerman Airport

Milwaukee, Wisconsin, USA

Breddekreds: 43-07N, længdekreds: 088-02W, højde: 227 m

Aktuelle vejr

Denne rapport blev lavet for 21 minutter siden, kl. 08:55 UTC
Vind 4 kt fra sydvest
Temperatur 2°C
Fugtighed 69%
Tryk 1015 hPa
Sigt: 16.1 km
Overskyet i en højde af 3400 ft

METAR: KMWC 130855Z AUTO 22004KT 10SM OVC034 02/M03 A2996 RMK AO2

Tid: 03:16 (09:16 UTC)


TAF: fraværende

Vejrobservationer og prognoser fra mere end 4000 lufthavne (METAR og TAF).

De gule og røde prikker repræsenterer de meteorologiske stationer.

Flyt musen over at se navnet på stationen.

Så klik over at se vejr observationer og prognoser.

At skifte det kort: Klik på de grønne knapper med et sort kors for at zoome ind; på den grønne knap med en bindestreg for at zoome ud; eller på de grønne pile for tilstødende kort.


METAR-TAF: